最新機場天氣報告 (METAR)

METAR VMMC 230400Z 09010KT 070V140 9999 FEW012 SCT025 21/18 Q1018 NOSIG=

機場天氣報告電碼經解碼後
報告內容 編碼 意義
報告種類之識別 METAR 機場天氣報告
機場代碼 VMMC 中國澳門
觀察時間 230400Z 23/03/2019 04:00:00 國際時
地面風方向及風速 09010KT 070V140 平均風向 090 度, 風速 10 海里; 風向變化介乎 070 至 140 度
能見度 9999 10公里或以上
現時天氣狀況    
FEW012 SCT025 雲量 1-2份; 雲底 1200 呎
雲量 3-4份; 雲底 2500 呎
空氣溫度和露點溫度 21/18 氣溫攝氏 21 度
露點溫度攝氏 18 度
氣壓 (QNH) Q1018 1018 百帕斯卡
未來兩小時之天氣趨勢變化 NOSIG 沒有顯著變化

其他國際機場:
天氣預報 (TAF)   天氣報告 (METAR)